createdAt,value
2023-02-24T00:00:32.692Z,28.00
2023-02-24T00:01:37.671Z,27.37
2023-02-24T00:02:39.335Z,27.60
2023-02-24T00:03:44.870Z,27.03
2023-02-24T00:04:51.586Z,28.47
2023-02-24T00:05:52.961Z,29.73
2023-02-24T00:06:54.409Z,27.37
2023-02-24T00:07:55.723Z,30.73
2023-02-24T00:08:57.023Z,29.30
2023-02-24T00:09:58.316Z,31.50
2023-02-24T00:10:59.669Z,72.30
2023-02-24T00:12:02.536Z,130.03
2023-02-24T00:13:04.016Z,91.23
2023-02-24T00:14:06.184Z,67.43
2023-02-24T00:15:07.841Z,70.53
2023-02-24T00:16:09.302Z,61.87
2023-02-24T00:17:12.213Z,65.07
2023-02-24T00:18:13.597Z,42.77
2023-02-24T00:19:16.367Z,69.50
2023-02-24T00:20:19.050Z,39.77
2023-02-24T00:21:20.694Z,36.43
2023-02-24T00:22:22.358Z,33.60
2023-02-24T00:23:23.742Z,38.57
2023-02-24T00:24:25.493Z,35.27
2023-02-24T00:25:26.842Z,34.23
2023-02-24T00:26:29.830Z,35.27
2023-02-24T00:27:32.288Z,36.50
2023-02-24T00:28:34.339Z,36.10
2023-02-24T00:29:37.576Z,39.20
2023-02-24T00:30:39.154Z,45.33
2023-02-24T00:31:42.757Z,44.13
2023-02-24T00:32:44.211Z,53.07
2023-02-24T00:33:46.412Z,48.07
2023-02-24T00:34:47.942Z,47.97
2023-02-24T00:35:49.471Z,46.93
2023-02-24T00:36:51.478Z,44.50
2023-02-24T00:37:54.307Z,44.40
2023-02-24T00:39:10.727Z,41.90
2023-02-24T00:40:15.447Z,38.73
2023-02-24T00:41:19.434Z,41.40
2023-02-24T00:42:22.760Z,45.03
2023-02-24T00:43:24.096Z,38.07
2023-02-24T00:44:26.001Z,39.10
2023-02-24T00:45:30.695Z,36.60
2023-02-24T00:46:35.697Z,39.60
2023-02-24T00:47:38.907Z,39.00
2023-02-24T00:48:40.551Z,39.13
2023-02-24T00:49:43.569Z,40.97
2023-02-24T00:50:44.893Z,38.60
2023-02-24T00:51:48.511Z,38.53
2023-02-24T00:52:50.932Z,37.83
2023-02-24T00:53:56.025Z,37.87
2023-02-24T00:54:58.804Z,36.20
2023-02-24T00:56:06.966Z,36.97
2023-02-24T00:57:08.380Z,37.67
2023-02-24T00:58:09.687Z,35.70
2023-02-24T00:59:11.725Z,38.40
2023-02-24T01:00:15.029Z,38.10
2023-02-24T01:01:18.226Z,38.57
2023-02-24T01:02:20.334Z,38.93
2023-02-24T01:03:21.834Z,37.83
2023-02-24T01:04:23.168Z,37.87
2023-02-24T01:05:27.825Z,37.87
2023-02-24T01:06:29.413Z,35.23
2023-02-24T01:07:31.114Z,37.83
2023-02-24T01:08:36.324Z,39.20
2023-02-24T01:09:38.766Z,37.93
2023-02-24T01:10:40.120Z,40.43
2023-02-24T01:12:00.913Z,38.43
2023-02-24T01:13:02.832Z,36.67
2023-02-24T01:14:04.948Z,37.93
2023-02-24T01:15:08.900Z,39.10
2023-02-24T01:16:13.157Z,39.60
2023-02-24T01:17:15.237Z,38.23
2023-02-24T01:18:18.301Z,39.57
2023-02-24T01:19:20.843Z,37.70
2023-02-24T01:20:22.162Z,40.57
2023-02-24T01:21:24.032Z,39.33
2023-02-24T01:22:26.517Z,36.17
2023-02-24T01:23:27.876Z,40.90
2023-02-24T01:24:31.468Z,42.57
2023-02-24T01:25:34.470Z,40.00
2023-02-24T01:26:36.283Z,37.20
2023-02-24T01:27:37.638Z,40.47
2023-02-24T01:28:38.997Z,36.77
2023-02-24T01:29:40.514Z,38.27
2023-02-24T01:30:43.823Z,37.00
2023-02-24T01:31:47.300Z,41.07
2023-02-24T01:32:50.978Z,39.90
2023-02-24T01:33:52.535Z,40.30
2023-02-24T01:34:53.891Z,41.17
2023-02-24T01:35:55.549Z,39.40
2023-02-24T01:36:56.915Z,39.00
2023-02-24T01:37:59.109Z,40.20
2023-02-24T01:39:04.210Z,42.47
2023-02-24T01:40:18.797Z,39.83
2023-02-24T01:41:27.550Z,42.30
2023-02-24T01:42:29.034Z,38.93
2023-02-24T01:43:30.893Z,42.27
2023-02-24T01:44:32.610Z,39.33
2023-02-24T01:45:36.661Z,43.10
2023-02-24T01:46:39.067Z,41.23
2023-02-24T01:47:40.894Z,46.53
2023-02-24T01:48:42.640Z,38.93
2023-02-24T01:49:45.105Z,41.27
2023-02-24T01:50:46.519Z,41.07
2023-02-24T01:51:58.078Z,43.80
2023-02-24T01:53:01.295Z,42.30
2023-02-24T01:54:02.971Z,41.03
2023-02-24T01:55:07.675Z,43.00
2023-02-24T01:56:13.681Z,42.70
2023-02-24T01:57:17.245Z,43.77
2023-02-24T01:58:28.470Z,45.20
2023-02-24T01:59:30.137Z,39.03
2023-02-24T02:00:33.672Z,43.37
2023-02-24T02:01:40.656Z,39.63
2023-02-24T02:02:44.767Z,40.57
2023-02-24T02:03:46.969Z,42.47
2023-02-24T02:04:54.449Z,41.83
2023-02-24T02:06:00.980Z,41.30
2023-02-24T02:07:02.383Z,37.70
2023-02-24T02:08:08.955Z,42.23
2023-02-24T02:09:15.206Z,41.63
2023-02-24T02:10:18.430Z,42.93
2023-02-24T02:11:23.395Z,42.77
2023-02-24T02:12:24.887Z,41.97
2023-02-24T02:13:26.861Z,42.30
2023-02-24T02:14:29.631Z,43.93
2023-02-24T02:15:32.376Z,39.97
2023-02-24T02:16:49.253Z,43.40
2023-02-24T02:17:59.412Z,43.13
2023-02-24T02:19:16.000Z,44.33
2023-02-24T02:20:37.008Z,41.00
2023-02-24T02:21:58.377Z,42.47
2023-02-24T02:23:27.853Z,44.97
2023-02-24T02:24:48.352Z,42.77
2023-02-24T02:26:08.903Z,41.60
2023-02-24T02:27:10.165Z,44.17
2023-02-24T02:28:31.649Z,41.67
2023-02-24T02:29:33.767Z,39.87
2023-02-24T02:30:43.980Z,40.57
2023-02-24T02:32:06.041Z,40.33
2023-02-24T02:33:46.755Z,40.93
2023-02-24T02:34:50.199Z,41.73
2023-02-24T02:36:00.846Z,43.60
2023-02-24T02:37:11.813Z,41.97
2023-02-24T02:38:16.046Z,42.60
2023-02-24T02:39:35.763Z,41.30
2023-02-24T02:40:38.978Z,42.33
2023-02-24T02:41:40.421Z,40.63
2023-02-24T02:42:45.122Z,41.43
2023-02-24T02:43:50.317Z,43.20
2023-02-24T02:45:05.489Z,42.03
2023-02-24T02:46:17.638Z,42.63
2023-02-24T02:47:23.284Z,41.40
2023-02-24T02:48:47.433Z,41.27
2023-02-24T02:49:54.677Z,44.37
2023-02-24T02:51:04.138Z,41.13
2023-02-24T02:52:10.368Z,42.57
2023-02-24T02:53:15.828Z,42.00
2023-02-24T02:54:18.060Z,41.40
2023-02-24T02:55:40.881Z,44.67
2023-02-24T02:56:44.624Z,42.67
2023-02-24T02:57:47.646Z,44.10
2023-02-24T02:58:53.248Z,41.67
2023-02-24T02:59:57.708Z,45.13
2023-02-24T03:01:03.307Z,44.87
2023-02-24T03:02:14.679Z,45.23
2023-02-24T03:03:18.209Z,48.30
2023-02-24T03:04:23.006Z,47.07
2023-02-24T03:05:29.644Z,50.07
2023-02-24T03:06:33.812Z,47.20
2023-02-24T03:07:37.562Z,46.83
2023-02-24T03:08:40.177Z,46.50
2023-02-24T03:09:44.148Z,41.53
2023-02-24T03:10:50.882Z,45.90
2023-02-24T03:11:54.264Z,47.60
2023-02-24T03:12:57.372Z,46.17
2023-02-24T03:14:02.704Z,45.73
2023-02-24T03:15:05.770Z,45.57
2023-02-24T03:16:08.526Z,43.97
2023-02-24T03:17:14.829Z,46.83
2023-02-24T03:18:20.180Z,43.97
2023-02-24T03:19:26.094Z,47.77
2023-02-24T03:20:32.691Z,47.60
2023-02-24T03:21:38.639Z,46.90
2023-02-24T03:22:42.764Z,43.67
2023-02-24T03:23:50.121Z,48.77
2023-02-24T03:24:52.784Z,50.23
2023-02-24T03:26:01.156Z,45.40
2023-02-24T03:27:20.628Z,47.33
2023-02-24T03:28:24.104Z,47.47
2023-02-24T03:29:45.836Z,47.90
2023-02-24T03:30:53.065Z,47.23
2023-02-24T03:31:59.484Z,46.73
2023-02-24T03:33:08.315Z,47.73
2023-02-24T03:34:13.159Z,43.63
2023-02-24T03:35:21.518Z,47.30
2023-02-24T03:36:23.171Z,47.17
2023-02-24T03:37:27.828Z,45.50
2023-02-24T03:38:31.172Z,47.27
2023-02-24T03:39:32.742Z,51.30
2023-02-24T03:40:44.132Z,46.00
2023-02-24T03:41:56.188Z,48.93
2023-02-24T03:43:05.306Z,47.33
2023-02-24T03:44:09.532Z,47.63
2023-02-24T03:45:11.290Z,47.70
2023-02-24T03:46:14.971Z,49.27
2023-02-24T03:47:17.456Z,45.00
2023-02-24T03:48:18.939Z,48.17
2023-02-24T03:49:20.798Z,46.83
2023-02-24T03:50:26.814Z,44.63
2023-02-24T03:51:32.441Z,49.87
2023-02-24T03:52:52.609Z,42.77
2023-02-24T03:53:54.437Z,46.63
2023-02-24T03:55:06.777Z,46.13
2023-02-24T03:56:27.387Z,48.23
2023-02-24T03:57:54.639Z,45.73
2023-02-24T03:59:02.799Z,48.67
2023-02-24T04:00:26.018Z,45.23
2023-02-24T04:01:34.857Z,48.60
2023-02-24T04:02:36.713Z,47.33
2023-02-24T04:03:42.012Z,48.40
2023-02-24T04:04:59.447Z,46.40
2023-02-24T04:06:11.577Z,47.87
2023-02-24T04:07:35.982Z,48.27
2023-02-24T04:08:48.653Z,47.60
2023-02-24T04:09:52.518Z,45.93
2023-02-24T04:11:00.434Z,45.73
2023-02-24T04:12:09.296Z,46.37
2023-02-24T04:13:13.033Z,45.33
2023-02-24T04:14:24.721Z,48.03
2023-02-24T04:15:29.516Z,47.83
2023-02-24T04:16:39.920Z,45.37
2023-02-24T04:17:45.784Z,43.77
2023-02-24T04:18:50.329Z,43.23
2023-02-24T04:19:54.691Z,46.63
2023-02-24T04:20:59.629Z,46.30
2023-02-24T04:22:03.884Z,43.73
2023-02-24T04:23:11.365Z,44.73
2023-02-24T04:24:15.880Z,45.20
2023-02-24T04:25:24.335Z,47.90
2023-02-24T04:26:26.687Z,42.10
2023-02-24T04:27:30.311Z,47.37
2023-02-24T04:28:45.102Z,44.70
2023-02-24T04:29:49.719Z,44.90
2023-02-24T04:30:54.520Z,47.87
2023-02-24T04:32:02.362Z,45.33
2023-02-24T04:33:04.024Z,45.40
2023-02-24T04:34:09.265Z,46.10
2023-02-24T04:35:14.007Z,46.30
2023-02-24T04:36:18.871Z,43.40
2023-02-24T04:37:23.522Z,45.10
2023-02-24T04:38:25.383Z,45.23
2023-02-24T04:39:28.457Z,48.57
2023-02-24T04:40:32.344Z,43.10
2023-02-24T04:41:33.656Z,47.77
2023-02-24T04:42:34.953Z,44.73
2023-02-24T04:43:36.280Z,44.10
2023-02-24T04:44:37.616Z,45.13
2023-02-24T04:45:41.977Z,46.47
2023-02-24T04:46:44.376Z,45.90
2023-02-24T04:47:49.320Z,44.23
2023-02-24T04:48:50.977Z,46.70
2023-02-24T04:49:54.970Z,44.07
2023-02-24T04:50:56.300Z,48.60
2023-02-24T04:51:57.876Z,46.13
2023-02-24T04:53:00.886Z,45.47
2023-02-24T04:54:03.699Z,46.03
2023-02-24T04:55:10.061Z,44.13
2023-02-24T04:56:19.292Z,47.73
2023-02-24T04:57:30.906Z,45.57
2023-02-24T04:58:36.818Z,47.87
2023-02-24T04:59:38.163Z,46.67
2023-02-24T05:00:42.892Z,42.73
2023-02-24T05:01:44.839Z,46.63
2023-02-24T05:02:47.884Z,47.40
2023-02-24T05:03:52.003Z,46.70
2023-02-24T05:04:53.345Z,47.83
2023-02-24T05:05:59.986Z,45.97
2023-02-24T05:07:03.031Z,47.43
2023-02-24T05:08:08.987Z,45.63
2023-02-24T05:09:16.922Z,46.53
2023-02-24T05:10:20.346Z,42.97
2023-02-24T05:11:22.060Z,45.00
2023-02-24T05:12:23.617Z,44.80
2023-02-24T05:13:27.714Z,43.87
2023-02-24T05:14:29.061Z,45.57
2023-02-24T05:15:33.504Z,43.97
2023-02-24T05:16:35.057Z,49.00
2023-02-24T05:17:36.660Z,44.50
2023-02-24T05:18:37.980Z,47.13
2023-02-24T05:19:57.983Z,47.23
2023-02-24T05:21:22.579Z,45.20
2023-02-24T05:22:24.122Z,44.60
2023-02-24T05:23:26.810Z,45.13
2023-02-24T05:24:33.140Z,49.07
2023-02-24T05:25:37.786Z,48.23
2023-02-24T05:26:41.759Z,51.83
2023-02-24T05:27:43.218Z,44.73
2023-02-24T05:28:49.031Z,45.53
2023-02-24T05:29:50.370Z,47.93
2023-02-24T05:30:54.713Z,48.90
2023-02-24T05:31:59.821Z,47.17
2023-02-24T05:33:01.389Z,45.60
2023-02-24T05:34:08.427Z,44.60
2023-02-24T05:35:10.725Z,49.07
2023-02-24T05:36:16.204Z,45.00
2023-02-24T05:37:18.392Z,47.17
2023-02-24T05:38:19.720Z,46.20
2023-02-24T05:39:21.499Z,46.00
2023-02-24T05:40:24.940Z,46.20
2023-02-24T05:41:35.618Z,46.27
2023-02-24T05:42:36.945Z,49.13
2023-02-24T05:43:39.253Z,47.77
2023-02-24T05:44:40.602Z,51.93
2023-02-24T05:45:43.217Z,49.30
2023-02-24T05:46:46.003Z,47.00
2023-02-24T05:47:47.404Z,51.60
2023-02-24T05:48:51.829Z,50.23
2023-02-24T05:49:56.712Z,48.10
2023-02-24T05:50:59.589Z,45.20
2023-02-24T05:52:07.213Z,44.33
2023-02-24T05:53:09.434Z,46.03
2023-02-24T05:54:13.456Z,45.23
2023-02-24T05:55:14.886Z,46.10
2023-02-24T05:56:19.046Z,48.73
2023-02-24T05:57:32.768Z,47.53
2023-02-24T05:58:34.146Z,47.17
2023-02-24T05:59:35.503Z,45.93
2023-02-24T06:00:39.294Z,47.53
2023-02-24T06:01:47.375Z,46.20
2023-02-24T06:02:52.604Z,47.97
2023-02-24T06:03:54.356Z,47.23
2023-02-24T06:04:55.872Z,50.77
2023-02-24T06:06:05.456Z,48.77
2023-02-24T06:07:13.505Z,48.70
2023-02-24T06:08:14.853Z,48.07
2023-02-24T06:09:16.176Z,47.03
2023-02-24T06:10:17.715Z,45.30
2023-02-24T06:11:20.671Z,48.10
2023-02-24T06:12:23.792Z,45.63
2023-02-24T06:13:26.089Z,50.63
2023-02-24T06:14:28.347Z,49.53
2023-02-24T06:15:31.502Z,49.77
2023-02-24T06:16:35.850Z,51.23
2023-02-24T06:17:37.821Z,45.90
2023-02-24T06:18:40.785Z,47.13
2023-02-24T06:19:43.394Z,50.60
2023-02-24T06:20:51.046Z,45.53
2023-02-24T06:21:52.657Z,46.97
2023-02-24T06:22:57.292Z,46.97
2023-02-24T06:23:58.830Z,48.53
2023-02-24T06:25:00.131Z,47.03
2023-02-24T06:26:02.154Z,48.20
2023-02-24T06:27:09.662Z,46.53
2023-02-24T06:28:11.486Z,48.63
2023-02-24T06:29:17.814Z,47.30
2023-02-24T06:30:19.312Z,47.47
2023-02-24T06:31:21.597Z,44.80
2023-02-24T06:32:24.810Z,48.63
2023-02-24T06:33:26.981Z,46.63
2023-02-24T06:34:28.332Z,49.00
2023-02-24T06:35:29.705Z,48.40
2023-02-24T06:36:31.724Z,45.63
2023-02-24T06:37:33.054Z,50.13
2023-02-24T06:38:35.257Z,46.77
2023-02-24T06:39:37.055Z,46.33
2023-02-24T06:40:38.398Z,45.93
2023-02-24T06:41:39.714Z,49.43
2023-02-24T06:42:44.550Z,47.30
2023-02-24T06:43:47.016Z,44.50
2023-02-24T06:44:48.903Z,47.50
2023-02-24T06:45:50.301Z,41.60
2023-02-24T06:46:54.036Z,44.43
2023-02-24T06:47:55.711Z,49.23
2023-02-24T06:48:58.072Z,45.73
2023-02-24T06:49:59.429Z,47.83
2023-02-24T06:51:05.258Z,49.57
2023-02-24T06:52:06.633Z,46.27
2023-02-24T06:53:16.771Z,47.03
2023-02-24T06:54:19.086Z,50.57
2023-02-24T06:55:26.441Z,47.40
2023-02-24T06:56:28.134Z,45.20
2023-02-24T06:57:32.712Z,46.00
2023-02-24T06:58:34.107Z,49.80
2023-02-24T06:59:35.443Z,43.83
2023-02-24T07:00:37.169Z,45.27
2023-02-24T07:01:45.261Z,48.33
2023-02-24T07:02:48.217Z,48.50
2023-02-24T07:04:08.034Z,46.67
2023-02-24T07:05:14.462Z,47.33
2023-02-24T07:06:24.625Z,48.07
2023-02-24T07:07:26.475Z,43.43
2023-02-24T07:08:28.221Z,47.00
2023-02-24T07:09:30.562Z,50.63
2023-02-24T07:10:32.994Z,45.27
2023-02-24T07:11:35.162Z,46.47
2023-02-24T07:12:36.538Z,48.53
2023-02-24T07:13:37.853Z,46.63
2023-02-24T07:14:40.370Z,51.00
2023-02-24T07:15:48.979Z,47.37
2023-02-24T07:16:54.208Z,47.60
2023-02-24T07:17:55.860Z,44.13
2023-02-24T07:19:02.871Z,46.63
2023-02-24T07:20:11.761Z,48.33
2023-02-24T07:21:13.128Z,50.97
2023-02-24T07:22:16.939Z,51.67
2023-02-24T07:23:33.318Z,47.90
2023-02-24T07:26:31.175Z,49.80
2023-02-24T07:27:32.774Z,50.03
2023-02-24T07:28:34.449Z,49.23
2023-02-24T07:29:35.901Z,47.17
2023-02-24T07:30:38.582Z,47.87
2023-02-24T07:31:40.150Z,47.13
2023-02-24T07:32:42.482Z,46.70
2023-02-24T07:33:45.098Z,48.43
2023-02-24T07:34:46.427Z,49.10
2023-02-24T07:35:58.552Z,46.63
2023-02-24T07:37:02.588Z,46.37
2023-02-24T07:38:05.493Z,44.70
2023-02-24T07:39:09.869Z,50.87
2023-02-24T07:40:17.193Z,45.37
2023-02-24T07:41:22.499Z,45.07
2023-02-24T07:42:24.161Z,47.33
2023-02-24T07:43:29.075Z,48.50
2023-02-24T07:44:30.484Z,48.50
2023-02-24T07:45:31.848Z,46.03
2023-02-24T07:46:33.676Z,45.87
2023-02-24T07:47:35.761Z,47.00
2023-02-24T07:48:37.443Z,44.30
2023-02-24T07:49:39.730Z,50.77
2023-02-24T07:50:41.957Z,47.40
2023-02-24T07:51:43.443Z,48.87
2023-02-24T07:52:47.967Z,48.70
2023-02-24T07:53:58.938Z,46.07
2023-02-24T07:55:00.350Z,46.17
2023-02-24T07:56:13.643Z,43.07
2023-02-24T07:57:15.073Z,48.03
2023-02-24T07:58:18.462Z,45.87
2023-02-24T07:59:21.944Z,45.23
2023-02-24T08:00:28.258Z,47.77
2023-02-24T08:01:38.676Z,48.60
2023-02-24T08:02:40.270Z,49.90
2023-02-24T08:03:41.838Z,51.57
2023-02-24T08:04:50.623Z,49.47
2023-02-24T08:05:54.594Z,46.57
2023-02-24T08:06:56.270Z,51.00
2023-02-24T08:07:57.588Z,51.73
2023-02-24T08:08:59.737Z,56.37
2023-02-24T08:10:13.698Z,51.43
2023-02-24T08:11:17.578Z,49.20
2023-02-24T08:12:22.092Z,48.80
2023-02-24T08:13:23.607Z,51.27
2023-02-24T08:14:32.913Z,52.70
2023-02-24T08:15:34.696Z,51.47
2023-02-24T08:16:42.391Z,52.43
2023-02-24T08:17:44.657Z,59.90
2023-02-24T08:18:49.029Z,60.07
2023-02-24T08:20:08.386Z,53.33
2023-02-24T08:21:09.898Z,54.37
2023-02-24T08:22:21.017Z,57.07
2023-02-24T08:23:23.579Z,58.80
2023-02-24T08:24:29.940Z,50.77
2023-02-24T08:25:38.231Z,62.07
2023-02-24T08:26:44.758Z,59.37
2023-02-24T08:28:05.156Z,53.57
2023-02-24T08:29:08.469Z,56.37
2023-02-24T08:30:21.159Z,53.30
2023-02-24T08:31:22.960Z,50.87
2023-02-24T08:32:26.091Z,51.00
2023-02-24T08:33:30.157Z,46.77
2023-02-24T08:34:31.970Z,50.23
2023-02-24T08:35:35.865Z,54.70
2023-02-24T08:36:37.408Z,49.70
2023-02-24T08:37:46.943Z,49.40
2023-02-24T08:38:52.258Z,53.17
2023-02-24T08:39:57.817Z,50.63
2023-02-24T08:41:04.848Z,49.70
2023-02-24T08:42:07.540Z,49.27
2023-02-24T08:43:16.408Z,48.37
2023-02-24T08:44:21.497Z,45.97
2023-02-24T08:45:23.165Z,48.27
2023-02-24T08:46:32.773Z,49.77
2023-02-24T08:47:36.173Z,47.90
2023-02-24T08:48:38.538Z,47.87
2023-02-24T08:49:40.680Z,49.87
2023-02-24T08:50:45.551Z,49.90
2023-02-24T08:51:48.399Z,45.27
2023-02-24T08:52:50.731Z,46.03
2023-02-24T08:53:53.338Z,45.00
2023-02-24T08:55:01.722Z,48.23
2023-02-24T08:56:12.646Z,45.27
2023-02-24T08:57:15.352Z,48.60
2023-02-24T08:58:27.357Z,48.10
2023-02-24T08:59:38.644Z,47.43
2023-02-24T09:00:49.430Z,49.20
2023-02-24T09:02:04.235Z,51.20
2023-02-24T09:03:11.144Z,47.77
2023-02-24T09:04:19.921Z,44.83
2023-02-24T09:05:26.500Z,47.17
2023-02-24T09:06:40.805Z,49.13
2023-02-24T09:07:42.451Z,49.03
2023-02-24T09:08:45.054Z,55.03
2023-02-24T09:09:46.834Z,45.30
2023-02-24T09:10:48.230Z,50.17
2023-02-24T09:11:57.209Z,48.03
2023-02-24T09:13:02.012Z,49.40
2023-02-24T09:14:04.734Z,47.00
2023-02-24T09:15:10.657Z,47.07
2023-02-24T09:16:16.494Z,46.53
2023-02-24T09:17:20.597Z,48.77
2023-02-24T09:18:30.436Z,46.77
2023-02-24T09:19:51.710Z,47.43
2023-02-24T09:21:11.911Z,49.03
2023-02-24T09:22:37.869Z,51.17
2023-02-24T09:23:45.933Z,50.87
2023-02-24T09:24:50.895Z,52.90
2023-02-24T09:25:54.250Z,48.53
2023-02-24T09:26:59.233Z,47.87
2023-02-24T09:28:08.810Z,45.70
2023-02-24T09:29:32.169Z,48.80
2023-02-24T09:30:50.965Z,48.00
2023-02-24T09:32:04.539Z,49.23
2023-02-24T09:33:19.065Z,49.40
2023-02-24T09:34:30.389Z,48.53
2023-02-24T09:35:46.081Z,49.83
2023-02-24T09:37:03.518Z,47.07
2023-02-24T09:38:05.778Z,50.30
2023-02-24T09:39:07.118Z,45.17
2023-02-24T09:40:21.469Z,47.70
2023-02-24T09:41:32.455Z,46.50
2023-02-24T09:42:48.984Z,49.67
2023-02-24T09:43:59.761Z,47.33
2023-02-24T09:45:12.604Z,48.57
2023-02-24T09:46:23.922Z,46.50
2023-02-24T09:48:01.814Z,50.63
2023-02-24T09:49:11.692Z,47.67
2023-02-24T09:50:14.093Z,50.97
2023-02-24T09:51:26.991Z,52.27
2023-02-24T09:52:40.872Z,50.07
2023-02-24T09:53:59.530Z,46.83
2023-02-24T09:55:25.048Z,48.30
2023-02-24T09:56:45.113Z,51.50
2023-02-24T09:58:09.005Z,51.83
2023-02-24T09:59:36.569Z,49.73
2023-02-24T10:00:46.183Z,48.17
2023-02-24T10:01:47.578Z,44.70
2023-02-24T10:02:59.975Z,50.50
2023-02-24T10:04:22.813Z,48.00
2023-02-24T10:05:38.284Z,47.93
2023-02-24T10:06:41.433Z,52.57
2023-02-24T10:07:46.382Z,48.37
2023-02-24T10:08:50.208Z,47.13
2023-02-24T10:10:31.645Z,49.27
2023-02-24T10:11:35.380Z,50.80
2023-02-24T10:12:40.610Z,48.10
2023-02-24T10:13:52.028Z,50.03
2023-02-24T10:15:16.106Z,46.83
2023-02-24T10:16:26.673Z,46.97
2023-02-24T10:17:39.284Z,53.03
2023-02-24T10:19:00.869Z,51.43
2023-02-24T10:20:13.882Z,46.00
2023-02-24T10:21:48.235Z,47.77
2023-02-24T10:22:54.193Z,47.97
2023-02-24T10:24:14.330Z,53.43
2023-02-24T10:25:25.316Z,48.97
2023-02-24T10:26:51.300Z,47.43
2023-02-24T10:28:20.069Z,48.83
2023-02-24T10:29:32.408Z,46.67
2023-02-24T10:30:54.775Z,51.73
2023-02-24T10:32:06.758Z,48.53
2023-02-24T10:33:20.810Z,48.27
2023-02-24T10:34:26.433Z,48.10
2023-02-24T10:35:33.538Z,45.63
2023-02-24T10:36:35.888Z,46.73
2023-02-24T10:37:45.583Z,45.53
2023-02-24T10:38:47.027Z,45.73
2023-02-24T10:39:57.353Z,46.33
2023-02-24T10:41:04.327Z,45.23
2023-02-24T10:42:20.373Z,46.47
2023-02-24T10:43:30.162Z,44.50
2023-02-24T10:44:38.896Z,45.50
2023-02-24T10:45:45.576Z,45.57
2023-02-24T10:46:47.456Z,44.17
2023-02-24T10:47:56.554Z,47.07
2023-02-24T10:49:09.375Z,42.77
2023-02-24T10:50:26.698Z,45.90
2023-02-24T10:51:41.615Z,46.03
2023-02-24T10:52:50.846Z,43.20
2023-02-24T10:54:14.155Z,41.30
2023-02-24T10:55:40.068Z,38.10
2023-02-24T10:56:44.297Z,34.77
2023-02-24T10:57:58.917Z,30.87
2023-02-24T10:59:40.822Z,33.40
2023-02-24T11:01:06.081Z,34.83
2023-02-24T11:02:29.811Z,38.43
2023-02-24T11:03:49.581Z,41.13
2023-02-24T11:04:59.748Z,39.60
2023-02-24T11:06:05.301Z,39.83
2023-02-24T11:07:24.317Z,37.23
2023-02-24T11:08:54.438Z,40.00
2023-02-24T11:10:11.302Z,42.47
2023-02-24T11:11:25.839Z,40.90
2023-02-24T11:12:47.174Z,38.90
2023-02-24T11:14:18.009Z,39.57
2023-02-24T11:15:44.471Z,39.30
2023-02-24T11:17:19.869Z,39.73
2023-02-24T11:18:28.097Z,40.10
2023-02-24T11:19:33.538Z,37.93
2023-02-24T11:20:49.274Z,44.73
2023-02-24T11:21:51.250Z,39.63
2023-02-24T11:22:55.851Z,41.43
2023-02-24T11:23:59.538Z,41.47
2023-02-24T11:25:05.360Z,41.80
2023-02-24T11:26:11.886Z,42.97
2023-02-24T11:27:16.804Z,43.57
2023-02-24T11:28:30.647Z,38.97
2023-02-24T11:29:52.323Z,36.17
2023-02-24T11:31:04.188Z,36.07
2023-02-24T11:32:15.661Z,37.33
2023-02-24T11:33:42.388Z,39.97
2023-02-24T11:34:49.934Z,38.90
2023-02-24T11:35:59.322Z,37.37
2023-02-24T11:37:23.678Z,35.10
2023-02-24T11:38:31.524Z,34.63
2023-02-24T11:39:55.415Z,37.27
2023-02-24T11:41:09.466Z,34.50
2023-02-24T11:42:15.551Z,37.23
2023-02-24T11:43:19.365Z,37.43
2023-02-24T11:44:23.438Z,39.53
2023-02-24T11:45:34.014Z,36.70
2023-02-24T11:47:01.884Z,39.10
2023-02-24T11:48:14.926Z,34.50
2023-02-24T11:49:36.026Z,37.57
2023-02-24T11:50:43.809Z,36.33
2023-02-24T11:51:52.109Z,35.50
2023-02-24T11:53:03.251Z,34.10
2023-02-24T11:54:15.200Z,31.97
2023-02-24T11:55:25.742Z,34.07
2023-02-24T11:56:33.136Z,32.37
2023-02-24T11:57:41.651Z,30.90
2023-02-24T11:58:59.785Z,35.93
2023-02-24T12:00:13.052Z,34.53
2023-02-24T12:01:24.798Z,33.83
2023-02-24T12:02:50.803Z,34.43
2023-02-24T12:04:02.654Z,35.57
2023-02-24T12:05:15.499Z,35.13
2023-02-24T12:06:43.530Z,34.97
2023-02-24T12:07:50.391Z,33.57
2023-02-24T12:08:53.925Z,36.10
2023-02-24T12:10:14.215Z,35.13
2023-02-24T12:11:21.795Z,34.90
2023-02-24T12:12:26.525Z,34.83
2023-02-24T12:13:32.272Z,34.93
2023-02-24T12:14:39.850Z,32.30
2023-02-24T12:15:52.747Z,36.17
2023-02-24T12:17:01.691Z,34.90
2023-02-24T12:18:13.591Z,34.90
2023-02-24T12:19:35.056Z,33.47
2023-02-24T12:20:44.210Z,36.03
2023-02-24T12:21:54.460Z,35.80
2023-02-24T12:22:57.766Z,30.77
2023-02-24T12:24:04.227Z,33.77
2023-02-24T12:25:06.020Z,32.60
2023-02-24T12:26:21.512Z,32.80
2023-02-24T12:27:46.382Z,32.37
2023-02-24T12:29:16.169Z,34.50
2023-02-24T12:30:41.361Z,32.57
2023-02-24T12:31:54.536Z,33.30
2023-02-24T12:34:30.651Z,33.40
2023-02-24T12:35:49.612Z,41.17
2023-02-24T12:37:09.853Z,33.23
2023-02-24T12:38:17.230Z,31.30
2023-02-24T12:39:24.005Z,30.17
2023-02-24T12:40:28.531Z,30.57
2023-02-24T12:41:45.068Z,29.47
2023-02-24T12:42:53.424Z,29.93
2023-02-24T12:44:16.151Z,27.70
2023-02-24T12:45:38.220Z,27.90
2023-02-24T12:46:43.407Z,24.80
2023-02-24T12:48:03.724Z,27.77
2023-02-24T12:49:12.113Z,32.13
2023-02-24T12:50:23.975Z,29.37
2023-02-24T12:51:40.669Z,30.13
2023-02-24T12:52:53.817Z,27.23
2023-02-24T12:54:04.406Z,27.23
2023-02-24T12:55:25.292Z,25.87
2023-02-24T12:56:31.350Z,26.60
2023-02-24T12:57:51.542Z,29.87
2023-02-24T12:58:56.340Z,27.07
2023-02-24T13:00:01.439Z,24.50
2023-02-24T13:01:10.864Z,27.30
2023-02-24T13:02:18.569Z,23.90
2023-02-24T13:03:31.931Z,25.43
2023-02-24T13:04:53.030Z,30.17
2023-02-24T13:05:54.405Z,25.37
2023-02-24T13:07:00.860Z,27.97
2023-02-24T13:08:12.649Z,26.87
2023-02-24T13:09:21.371Z,26.70
2023-02-24T13:10:34.971Z,25.57
2023-02-24T13:11:42.511Z,25.37
2023-02-24T13:13:02.668Z,25.83
2023-02-24T13:14:19.487Z,26.87
2023-02-24T13:15:25.366Z,27.33
2023-02-24T13:16:28.010Z,31.00
2023-02-24T13:17:29.564Z,28.80
2023-02-24T13:18:32.750Z,29.63
2023-02-24T13:19:34.125Z,27.90
2023-02-24T13:20:36.966Z,28.80
2023-02-24T13:21:39.900Z,26.73
2023-02-24T13:22:42.195Z,30.23
2023-02-24T13:23:52.349Z,28.03
2023-02-24T13:24:59.881Z,26.30
2023-02-24T13:26:01.325Z,30.17
2023-02-24T13:27:22.847Z,31.60
2023-02-24T13:28:25.698Z,34.53
2023-02-24T13:29:27.062Z,28.43
2023-02-24T13:30:31.986Z,28.47
2023-02-24T13:31:50.100Z,28.77
2023-02-24T13:33:02.631Z,27.93
2023-02-24T13:34:12.463Z,28.73
2023-02-24T13:35:13.865Z,29.33
2023-02-24T13:36:24.700Z,27.10
2023-02-24T13:37:30.066Z,29.00
2023-02-24T13:38:31.571Z,29.87
2023-02-24T13:39:35.108Z,28.00
2023-02-24T13:40:36.566Z,31.53
2023-02-24T13:41:40.501Z,28.40
2023-02-24T13:42:43.308Z,28.37
2023-02-24T13:43:52.986Z,26.27
2023-02-24T13:45:01.987Z,26.93
2023-02-24T13:46:14.759Z,24.97
2023-02-24T13:47:35.093Z,26.90
2023-02-24T13:48:36.479Z,26.53
2023-02-24T13:49:37.832Z,26.33
2023-02-24T13:50:59.936Z,25.97
2023-02-24T13:52:15.625Z,25.00
2023-02-24T13:53:26.582Z,23.40
2023-02-24T13:54:43.592Z,24.23
2023-02-24T13:55:53.021Z,24.30
2023-02-24T13:57:17.705Z,23.57
2023-02-24T13:58:40.793Z,20.93
2023-02-24T14:00:10.171Z,22.53
2023-02-24T14:01:14.271Z,21.37
2023-02-24T14:02:17.563Z,20.53
2023-02-24T14:03:20.406Z,21.30
2023-02-24T14:04:31.830Z,21.93
2023-02-24T14:05:34.600Z,25.03
2023-02-24T14:06:36.850Z,21.10
2023-02-24T14:07:39.018Z,19.63
2023-02-24T14:08:45.774Z,19.27
2023-02-24T14:09:48.664Z,23.33
2023-02-24T14:10:55.356Z,22.80
2023-02-24T14:12:02.654Z,20.73
2023-02-24T14:13:13.836Z,21.77
2023-02-24T14:14:17.984Z,20.47
2023-02-24T14:15:20.367Z,19.07
2023-02-24T14:16:23.506Z,16.63
2023-02-24T14:17:28.324Z,23.03
2023-02-24T14:18:30.055Z,20.53
2023-02-24T14:19:31.405Z,22.73
2023-02-24T14:20:33.877Z,20.07
2023-02-24T14:21:35.275Z,19.07
2023-02-24T14:23:03.839Z,19.13
2023-02-24T14:24:14.314Z,17.70
2023-02-24T14:25:15.939Z,19.77
2023-02-24T14:26:20.372Z,19.27
2023-02-24T14:27:26.400Z,20.97
2023-02-24T14:28:29.831Z,19.37
2023-02-24T14:29:43.275Z,20.83
2023-02-24T14:30:45.289Z,18.53
2023-02-24T14:31:47.988Z,20.63